Latest Weather Observations for Lake Macquarie - Cooranbong

IDN60801

Issued at 6:02 pm EST Friday 28 April 2017 (issued every 30 minutes, with the page automatically refreshed every 10 minutes)

About weather observations | Map of weather stations | Latest weather observations for NSW | Other Formats
Station Details ID: 061412 Name: LAKE MACQUARIE AWS Lat: -33.09 Lon: 151.46 Height: 6.0 m
Data from the previous 72 hours. | See also: Recent months at Lake Macquarie - Cooranbong
Date/Time
EST
Temp
°C
App
Temp
°C
Dew
Point
°C
Rel
Hum
%
Delta-T
°C
Wind Press
QNH
hPa
Press
MSL
hPa
Rain since
9am
mm
Dir  Spd
km/h
Gust
km/h
Spd
kts
Gust
kts
28/06:00pm 13.6 13.4 8.9 73 2.4 CALM 0 0 0 0 - 1021.1 -
28/05:30pm 15.5 15.2 8.7 64 3.4 CALM 0 0 0 0 1020.8 1020.8 0.0
28/05:00pm 17.1 15.9 8.0 55 4.6 SSE 4 9 2 5 1020.7 1020.7 0.0
28/04:30pm 18.2 16.6 7.9 51 5.3 SSE 6 9 3 5 1020.3 1020.3 0.0
28/04:00pm 19.0 17.0 6.2 43 6.3 SSE 6 7 3 4 1020.4 1020.4 0.0
28/03:30pm 20.1 17.4 2.5 31 8.2 WSW 6 9 3 5 1020.4 1020.4 0.0
28/03:00pm 20.2 17.5 2.5 31 8.2 SSW 6 11 3 6 1020.4 1020.4 0.0
28/02:30pm 20.4 17.4 1.8 29 8.5 WSW 7 15 4 8 1020.4 1020.4 0.0
28/02:00pm 20.7 18.2 3.9 33 8.0 WSW 6 13 3 7 1020.4 1020.4 0.0
28/01:30pm 19.9 16.9 4.0 35 7.6 WSW 9 17 5 9 1020.5 1020.5 0.0
28/01:00pm 19.9 17.6 5.9 40 6.9 SW 7 17 4 9 1020.9 1020.9 0.0
28/12:30pm 20.0 18.3 7.4 44 6.4 S 6 11 3 6 1021.2 1021.2 0.0
28/12:00pm 19.3 17.3 7.1 45 6.1 S 7 17 4 9 1021.8 1021.8 0.0
28/11:30am 18.7 16.5 7.8 49 5.6 SW 9 17 5 9 1022.2 1022.2 0.0
28/11:00am 18.3 16.3 7.1 48 5.6 SW 7 15 4 8 1022.4 1022.4 0.0
28/10:30am 18.0 15.7 7.4 50 5.3 SW 9 17 5 9 1022.6 1022.6 0.0
28/10:00am 17.3 14.9 6.8 50 5.2 WSW 9 13 5 7 1022.6 1022.6 0.0
28/09:30am 16.5 14.3 6.3 51 5.0 SW 7 20 4 11 1022.6 1022.6 0.0
28/09:00am 15.7 13.3 5.3 50 4.9 WSW 7 17 4 9 1022.6 1022.6 0.0
28/08:30am 14.7 11.8 4.7 51 4.7 WSW 9 19 5 10 1022.4 1022.4 0.0
28/08:00am 13.9 11.6 5.0 55 4.1 SW 6 9 3 5 1022.1 1022.1 0.0
28/07:30am 13.1 10.5 4.3 55 4.0 SW 7 15 4 8 1021.7 1021.7 0.0
28/07:00am 12.2 10.2 4.4 59 3.5 SW 4 9 2 5 1021.3 1021.3 0.0
28/06:30am 12.3 9.9 4.3 58 3.6 WSW 6 11 3 6 1020.9 1020.9 0.0
28/06:00am 12.5 10.1 4.2 57 3.7 WSW 6 15 3 8 1020.7 1020.7 0.0
28/05:30am 12.8 10.3 4.5 57 3.8 SW 7 15 4 8 1020.5 1020.5 0.0
28/05:00am 13.4 10.9 4.8 56 4.0 WSW 7 13 4 7 1020.2 1020.2 0.0
28/04:30am 13.7 11.5 5.1 56 4.0 WSW 6 11 3 6 1019.9 1019.9 0.0
28/04:00am 13.9 11.6 5.5 57 3.9 WSW 7 13 4 7 1019.7 1019.7 0.0
28/03:30am 14.3 12.0 5.7 56 4.1 SW 7 17 4 9 1019.4 1019.4 0.0
28/03:00am 14.8 12.2 5.9 55 4.2 SW 9 17 5 9 1019.3 1019.3 0.0
28/02:30am 14.9 12.8 6.5 57 4.1 SW 7 19 4 10 1019.2 1019.2 0.0
28/02:00am 14.7 13.2 6.8 59 3.8 SW 4 9 2 5 1019.2 1019.2 0.0
28/01:30am 15.1 12.7 6.9 58 4.0 SW 9 30 5 16 1019.2 1019.2 0.0
28/01:00am 15.3 13.2 6.8 57 4.1 WSW 7 20 4 11 1018.8 1018.8 0.0
28/12:30am 15.3 13.2 6.6 56 4.2 SW 7 15 4 8 1018.6 1018.6 0.0
28/12:00am 15.3 13.4 6.8 57 4.1 WSW 6 15 3 8 1018.6 1018.6 0.0
 
Date/Time
EST
Temp
°C
App
Temp
°C
Dew
Point
°C
Rel
Hum
%
Delta-T
°C
Wind Press
QNH
hPa
Press
MSL
hPa
Rain since
9am
mm
Dir  Spd
km/h
Gust
km/h
Spd
kts
Gust
kts
27/11:30pm 15.1 13.5 6.4 56 4.2 SW 4 9 2 5 1018.5 1018.5 0.0
27/11:00pm 15.1 12.9 6.4 56 4.2 WSW 7 13 4 7 1018.5 1018.5 0.0
27/10:30pm 15.0 13.6 7.3 60 3.8 WSW 4 7 2 4 1018.7 1018.7 0.0
27/10:00pm 14.4 13.3 8.4 67 3.0 WSW 4 7 2 4 1018.6 1018.6 0.0
27/09:30pm 13.3 13.1 9.0 75 2.2 CALM 0 4 0 2 1018.3 1018.3 0.0
27/09:00pm 13.5 13.5 9.9 79 1.8 CALM 0 0 0 0 1018.3 1018.3 0.0
27/08:30pm 12.7 12.7 9.7 82 1.5 CALM 0 2 0 1 1018.3 1018.3 0.0
27/08:00pm 11.8 11.2 8.8 82 1.5 WSW 2 4 1 2 1018.2 1018.2 0.0
27/07:30pm 11.8 11.5 8.6 81 1.6 CALM 0 0 0 0 1018.0 1018.0 0.0
27/07:00pm 12.2 11.8 8.1 76 2.0 CALM 0 0 0 0 1017.8 1017.8 0.0
27/06:30pm 12.6 11.8 8.3 75 2.1 NW 2 6 1 3 1017.4 1017.4 0.0
27/06:00pm 12.8 12.4 8.1 73 2.3 CALM 0 0 0 0 1016.9 1016.9 0.0
27/05:30pm 14.9 14.0 7.7 62 3.6 WSW 2 4 1 2 1016.6 1016.6 0.0
27/05:00pm 16.8 15.7 6.9 52 4.9 SSW 2 6 1 3 1016.2 1016.2 0.0
27/04:30pm 17.4 15.7 5.7 46 5.7 S 4 13 2 7 1015.9 1015.9 0.0
27/04:00pm 18.2 16.3 4.7 41 6.5 S 4 9 2 5 1015.6 1015.6 0.0
27/03:30pm 18.9 16.4 3.5 36 7.2 SSW 6 15 3 8 1015.4 1015.4 0.0
27/03:00pm 19.1 16.5 4.1 37 7.1 SW 7 13 4 7 1015.2 1015.2 0.0
27/02:30pm 18.5 15.6 2.4 34 7.4 S 7 15 4 8 1014.9 1014.9 0.0
27/02:00pm 18.8 15.8 4.2 38 6.9 SW 9 17 5 9 1014.7 1014.7 0.0
27/01:30pm 18.6 15.8 3.3 36 7.1 WSW 7 13 4 7 1014.6 1014.6 0.0
27/01:00pm 18.4 15.7 3.5 37 7.0 WSW 7 17 4 9 1014.8 1014.8 0.0
27/12:30pm 18.1 15.4 3.6 38 6.8 SW 7 17 4 9 1015.0 1015.0 0.0
27/12:00pm 17.8 14.9 4.7 42 6.2 WSW 9 15 5 8 1015.2 1015.2 0.0
27/11:30am 17.7 14.4 4.3 41 6.3 W 11 19 6 10 1015.2 1015.2 0.0
27/11:00am 17.0 14.2 3.0 39 6.4 SW 7 15 4 8 1015.5 1015.5 0.0
27/10:30am 16.4 12.8 2.8 40 6.2 WSW 11 20 6 11 1015.5 1015.5 0.0
27/10:00am 16.4 12.6 3.8 43 5.8 SW 13 26 7 14 1015.5 1015.5 0.0
27/09:30am 15.8 12.1 2.6 41 5.9 SW 11 24 6 13 1015.5 1015.5 0.0
27/09:00am 15.9 12.3 3.0 42 5.8 WSW 11 22 6 12 1015.3 1015.3 2.6
27/08:30am 15.0 12.7 4.7 50 4.8 SW 6 15 3 8 1015.2 1015.2 2.6
27/08:00am 13.9 10.9 3.9 51 4.5 WSW 9 19 5 10 1015.0 1015.0 2.6
27/07:30am 13.0 10.6 4.4 56 3.9 WSW 6 9 3 5 1014.6 1014.6 2.6
27/07:00am 12.6 11.0 4.6 58 3.7 WSW 2 6 1 3 1014.2 1014.2 2.6
27/06:30am 12.6 10.6 4.3 57 3.8 SW 4 7 2 4 1013.8 1013.8 2.6
27/06:00am 13.1 10.8 4.8 57 3.8 WSW 6 9 3 5 1013.4 1013.4 2.6
27/05:30am 13.7 11.4 4.8 55 4.1 WSW 6 11 3 6 1013.1 1013.1 2.6
27/05:00am 13.7 11.5 5.1 56 4.0 WSW 6 9 3 5 1012.6 1012.6 2.6
27/04:30am 13.9 12.0 5.0 55 4.1 W 4 7 2 4 1012.2 1012.2 2.6
27/04:00am 14.3 11.8 4.9 53 4.4 WSW 7 13 4 7 1011.7 1011.7 2.6
27/03:30am 14.5 12.1 5.3 54 4.3 WSW 7 13 4 7 1011.6 1011.6 2.6
27/03:00am 13.1 11.6 6.7 65 3.1 W 4 13 2 7 1011.6 1011.6 2.6
27/02:30am 12.8 11.1 5.9 63 3.2 NNW 4 7 2 4 1011.6 1011.6 2.6
27/02:00am 13.6 11.9 5.7 59 3.7 NW 4 6 2 3 1011.8 1011.8 2.6
27/01:30am 13.7 11.9 5.6 58 3.8 WNW 4 7 2 4 1011.9 1011.9 2.6
27/01:00am 13.6 11.8 5.3 57 3.9 NW 4 9 2 5 1011.8 1011.8 2.6
27/12:30am 13.7 11.5 5.3 57 3.9 NW 6 11 3 6 1011.7 1011.7 2.6
27/12:00am 13.7 11.5 5.3 57 3.9 NNW 6 9 3 5 1011.5 1011.5 2.6
 
Date/Time
EST
Temp
°C
App
Temp
°C
Dew
Point
°C
Rel
Hum
%
Delta-T
°C
Wind Press
QNH
hPa
Press
MSL
hPa
Rain since
9am
mm
Dir  Spd
km/h
Gust
km/h
Spd
kts
Gust
kts
26/11:30pm 14.1 11.8 4.7 53 4.4 NW 6 11 3 6 1011.2 1011.2 2.6
26/11:00pm 14.2 11.8 4.5 52 4.5 W 6 17 3 9 1011.0 1011.0 2.6
26/10:30pm 13.8 11.6 5.2 56 4.0 W 6 13 3 7 1010.9 1010.9 2.6
26/10:00pm 13.4 10.9 4.8 56 4.0 WNW 7 17 4 9 1010.7 1010.7 2.6
26/09:30pm 13.3 10.5 5.0 57 3.8 WNW 9 22 5 12 1010.3 1010.3 2.6
26/09:00pm 13.2 10.7 4.9 57 3.8 WNW 7 13 4 7 1010.0 1010.0 2.6
26/08:30pm 13.6 10.8 5.3 57 3.9 WNW 9 19 5 10 1009.6 1009.6 2.6
26/08:00pm 13.6 11.1 5.0 56 4.0 NW 7 15 4 8 1008.9 1008.9 2.6
26/07:30pm 14.0 11.3 5.4 56 4.0 WNW 9 28 5 15 1008.2 1008.2 2.6
26/07:00pm 13.9 10.2 6.5 61 3.6 WNW 15 32 8 17 1007.6 1007.6 2.6
26/06:30pm 13.7 11.8 7.5 66 3.0 WNW 7 17 4 9 1007.6 1007.6 2.6
26/06:00pm 13.7 11.8 7.7 67 3.0 NNW 7 17 4 9 1007.1 1007.1 2.6
26/05:30pm 14.0 12.2 7.1 63 3.4 WNW 6 9 3 5 1006.5 1006.5 2.6
26/05:00pm 14.2 11.2 7.5 64 3.3 W 13 24 7 13 1006.6 1006.6 2.6
26/04:30pm 14.2 11.8 8.8 70 2.7 WNW 11 22 6 12 1006.3 1006.3 2.6
26/04:00pm 14.2 11.4 10.0 76 2.2 WSW 15 30 8 16 1005.8 1005.8 2.4
26/03:30pm 18.9 15.6 8.0 49 5.6 WSW 15 43 8 23 1004.5 1004.5 0.0
26/03:00pm 21.1 17.9 5.1 35 7.9 SW 11 24 6 13 1003.0 1003.0 0.0
26/02:30pm 24.7 21.0 2.2 23 10.8 W 11 20 6 11 1002.4 1002.4 0.0
26/02:00pm 24.6 21.3 4.4 27 10.1 WNW 11 20 6 11 1002.5 1002.5 0.0
26/01:30pm 24.3 20.4 3.6 26 10.1 WNW 13 28 7 15 1002.7 1002.7 0.0
26/01:00pm 23.9 20.3 6.7 33 8.9 W 15 26 8 14 1003.2 1003.2 0.0
26/12:30pm 23.9 22.0 9.1 39 8.0 NW 9 19 5 10 1003.9 1003.9 0.0
26/12:00pm 23.1 21.7 10.9 46 6.8 W 9 17 5 9 1004.5 1004.5 0.0
26/11:30am 23.6 22.9 13.2 52 6.0 NW 9 19 5 10 1005.2 1005.2 0.0
26/11:00am 23.0 22.0 12.3 51 6.1 WNW 9 19 5 10 1005.7 1005.7 0.0
26/10:30am 22.3 21.8 12.8 55 5.4 NW 7 17 4 9 1006.5 1006.5 0.0
26/10:00am 22.0 21.8 13.6 59 4.9 NW 7 11 4 6 1006.8 1006.8 0.0
26/09:30am 20.3 21.0 15.5 74 2.8 N 6 7 3 4 1007.5 1007.5 0.0
26/09:00am 18.8 20.1 15.1 79 2.2 N 2 4 1 2 1007.6 1007.6 3.4
26/08:30am 18.3 19.8 15.7 85 1.5 NNW 2 4 1 2 1007.9 1007.9 3.4
26/08:00am 17.5 18.5 15.3 87 1.3 NW 4 9 2 5 1008.0 1008.0 3.4
26/07:30am 16.8 18.8 16.0 95 0.5 CALM 0 0 0 0 1007.9 1007.9 3.4
26/07:00am 15.1 16.0 14.1 94 0.6 NNW 2 4 1 2 1007.8 1007.8 3.4
26/06:30am 14.6 14.9 13.3 92 0.7 NW 4 6 2 3 1007.9 1007.9 3.4
26/06:00am 14.9 15.2 13.4 91 0.8 NNW 4 6 2 3 1007.7 1007.7 3.4
26/05:30am 16.1 16.8 14.6 91 0.9 NNW 4 6 2 3 1007.7 1007.7 3.2
26/05:00am 16.2 17.3 14.6 90 0.9 NNW 2 6 1 3 1007.7 1007.7 3.2
26/04:30am 16.3 16.9 14.3 88 1.1 NW 4 6 2 3 1007.5 1007.5 3.2
26/04:00am 16.2 16.7 13.9 86 1.3 NW 4 7 2 4 1007.5 1007.5 3.2
26/03:30am 17.2 17.8 14.3 83 1.7 NNW 4 6 2 3 1007.5 1007.5 3.2
26/03:00am 17.6 18.4 14.9 84 1.6 NNW 4 7 2 4 1007.7 1007.7 3.2
26/02:30am 18.2 18.7 14.9 81 1.9 NW 6 9 3 5 1007.9 1007.9 3.2
26/02:00am 18.3 18.9 15.4 83 1.7 NW 6 11 3 6 1008.2 1008.2 3.2
26/01:30am 17.7 18.7 15.3 86 1.4 NNW 4 7 2 4 1008.4 1008.4 3.2
26/01:00am 17.5 18.5 15.3 87 1.3 WNW 4 6 2 3 1008.5 1008.5 3.2
26/12:30am 18.3 19.4 15.6 84 1.6 NNW 4 6 2 3 1008.7 1008.7 3.2
26/12:00am 18.1 19.4 16.1 88 1.2 NNW 4 11 2 6 1009.0 1009.0 3.2
 
Date/Time
EST
Temp
°C
App
Temp
°C
Dew
Point
°C
Rel
Hum
%
Delta-T
°C
Wind Press
QNH
hPa
Press
MSL
hPa
Rain since
9am
mm
Dir  Spd
km/h
Gust
km/h
Spd
kts
Gust
kts
25/11:30pm 18.0 19.3 16.2 89 1.1 NNW 4 7 2 4 1009.2 1009.2 3.2
25/11:00pm 18.8 20.0 16.0 84 1.7 NW 4 6 2 3 1009.4 1009.4 3.2
25/10:30pm 18.5 19.7 15.9 85 1.5 NNW 4 7 2 4 1009.4 1009.4 3.2
25/10:00pm 18.8 20.1 16.2 85 1.6 NW 4 9 2 5 1009.7 1009.7 3.2
25/09:30pm 18.6 19.6 16.8 89 1.1 N 7 15 4 8 1009.9 1009.9 3.2
25/09:00pm 18.6 19.9 17.1 91 0.9 NW 6 7 3 4 1010.5 1010.5 3.2
25/08:30pm 18.4 20.4 16.9 91 0.9 N 2 6 1 3 1010.6 1010.6 3.2
25/08:00pm 18.6 19.9 17.1 91 0.9 NNE 6 9 3 5 1010.4 1010.4 3.2
25/07:30pm 18.5 19.8 17.0 91 0.9 N 6 9 3 5 1010.3 1010.3 3.0
25/07:00pm 18.3 20.4 17.1 93 0.7 N 2 6 1 3 1010.1 1010.1 3.0
25/06:30pm 18.6 20.7 17.3 92 0.8 N 2 4 1 2 1010.1 1010.1 2.8

Other Formats:

Comma delimited format used in spreadsheet applications
http://www.bom.gov.au/fwo/IDN60801/IDN60801.95767.axf

JavaScript Object Notation format (JSON) in row-major order
http://www.bom.gov.au/fwo/IDN60801/IDN60801.95767.json